Time;durP1;ratioP1;P1;durP2;ratioP2;P2;SDS_P1;SDS_P2;PMS_P1;PMS_P2;Temp;Humidity;BMP_temperature;BMP_pressure;BME280_temperature;BME280_humidity;BME280_pressure;Samples;Min_cycle;Max_cycle;Signal;HPM_P1;HPM_P2
2022/05/13 00:00:02;;;;;;;8.75;7.75;;;;;;;13.97;60.93;99700.81;4988749;28;20022;-76
2022/05/13 00:02:28;;;;;;;10.82;6.45;;;;;;;13.98;60.98;99682.78;4991718;28;20426;-77
2022/05/13 00:04:53;;;;;;;11.23;6.88;;;;;;;14.10;60.33;99673.50;4991759;28;20084;-77
2022/05/13 00:07:19;;;;;;;14.90;6.70;;;;;;;14.22;60.43;99683.91;4993079;28;20057;-77
2022/05/13 00:09:57;;;;;;;9.27;6.32;;;;;;;14.17;59.98;99663.28;4995045;28;20042;-77
2022/05/13 00:12:28;;;;;;;15.18;6.82;;;;;;;14.13;60.36;99676.44;5005697;28;20056;-76
2022/05/13 00:14:55;;;;;;;11.27;6.97;;;;;;;14.38;59.80;99686.81;4996940;28;20041;-76
2022/05/13 00:17:22;;;;;;;13.55;7.05;;;;;;;14.45;59.77;99684.22;5014441;28;20021;-76
2022/05/13 00:19:48;;;;;;;12.18;7.15;;;;;;;14.51;59.70;99679.97;4996819;28;20033;-77
2022/05/13 00:22:14;;;;;;;12.45;8.13;;;;;;;14.44;60.18;99691.03;5014283;28;20142;-76
2022/05/13 00:24:40;;;;;;;16.67;8.07;;;;;;;14.25;60.87;99683.22;4996818;28;20121;-77
2022/05/13 00:27:06;;;;;;;10.60;8.23;;;;;;;14.02;61.07;99676.09;4984495;28;20113;-77
2022/05/13 00:29:31;;;;;;;13.00;7.68;;;;;;;14.19;61.07;99668.56;4983746;28;20073;-76
2022/05/13 00:31:57;;;;;;;12.13;7.97;;;;;;;14.24;60.80;99670.28;4999099;28;20049;-77
2022/05/13 00:34:24;;;;;;;12.73;7.45;;;;;;;14.29;60.42;99661.63;4994779;28;20038;-77
2022/05/13 00:36:51;;;;;;;9.48;7.10;;;;;;;14.66;59.35;99692.47;4977203;28;20022;-77
2022/05/13 00:39:17;;;;;;;15.23;7.97;;;;;;;14.54;59.28;99684.06;4994185;28;20116;-76
2022/05/13 00:41:42;;;;;;;14.48;7.90;;;;;;;14.28;59.91;99680.50;5011058;28;20034;-76
2022/05/13 00:44:09;;;;;;;15.88;8.25;;;;;;;14.54;59.51;99670.00;5003431;28;20080;-77
2022/05/13 00:46:35;;;;;;;9.90;7.38;;;;;;;14.68;58.49;99652.72;5013417;28;20034;-77
2022/05/13 00:49:04;;;;;;;13.75;6.95;;;;;;;15.09;57.79;99681.63;4996284;28;20402;-77
2022/05/13 00:51:35;;;;;;;12.52;7.43;;;;;;;15.00;57.92;99695.03;5014002;28;20034;-76
2022/05/13 00:54:01;;;;;;;17.63;7.53;;;;;;;14.25;59.42;99671.97;5013777;28;20477;-77
2022/05/13 00:56:27;;;;;;;13.23;8.02;;;;;;;13.92;61.02;99667.31;5013034;28;20030;-77
2022/05/13 00:58:56;;;;;;;8.85;7.40;;;;;;;13.78;61.80;99687.34;5000684;28;20092;-77
2022/05/13 01:01:23;;;;;;;9.80;7.22;;;;;;;13.15;63.52;99667.59;4976449;28;20049;-77
2022/05/13 01:03:49;;;;;;;15.57;7.95;;;;;;;13.06;64.32;99683.72;4994079;28;20038;-77
2022/05/13 01:06:20;;;;;;;11.57;8.77;;;;;;;12.87;64.89;99684.25;4993073;28;20038;-77
2022/05/13 01:08:47;;;;;;;11.40;8.40;;;;;;;13.00;65.19;99693.53;4993406;28;20065;-77
2022/05/13 01:11:19;;;;;;;9.85;8.25;;;;;;;12.86;65.57;99671.38;4995081;28;20030;-76
2022/05/13 01:13:55;;;;;;;16.48;8.65;;;;;;;12.84;65.65;99680.13;4993666;28;20037;-77
2022/05/13 01:16:20;;;;;;;15.48;8.48;;;;;;;13.05;65.29;99693.31;4993898;28;20489;-77
2022/05/13 01:18:46;;;;;;;11.32;7.82;;;;;;;12.92;65.18;99664.38;4991256;28;20077;-76
2022/05/13 01:21:18;;;;;;;17.05;8.52;;;;;;;13.20;64.98;99677.78;4976100;28;20026;-77
2022/05/13 01:23:45;;;;;;;18.60;8.32;;;;;;;13.17;64.40;99670.06;4993956;28;20030;-77
2022/05/13 01:26:15;;;;;;;9.88;8.15;;;;;;;13.07;64.76;99660.06;4975974;28;20036;-77
2022/05/13 01:28:46;;;;;;;14.52;8.45;;;;;;;12.91;65.26;99659.91;4987777;28;20030;-77
2022/05/13 01:31:20;;;;;;;10.65;8.35;;;;;;;12.68;65.69;99665.94;4976253;28;20490;-77
2022/05/13 01:33:46;;;;;;;14.98;9.80;;;;;;;12.68;66.53;99679.13;4993525;28;20026;-78
2022/05/13 01:36:13;;;;;;;15.38;8.70;;;;;;;12.67;66.52;99697.16;4993240;28;20512;-77
2022/05/13 01:38:40;;;;;;;18.27;8.45;;;;;;;12.61;66.32;99674.09;4993507;28;20030;-77
2022/05/13 01:41:07;;;;;;;13.10;8.88;;;;;;;12.63;67.03;99671.75;4988567;28;20429;-77
2022/05/13 01:43:34;;;;;;;8.85;7.28;;;;;;;12.67;67.00;99678.34;4992706;28;20079;-77
2022/05/13 01:46:00;;;;;;;8.52;7.10;;;;;;;12.66;66.99;99673.84;5003487;28;20037;-77
2022/05/13 01:48:27;;;;;;;7.57;6.30;;;;;;;12.61;67.01;99674.09;5010239;28;20374;-76
2022/05/13 01:50:52;;;;;;;11.25;6.97;;;;;;;12.44;67.85;99683.47;5004082;28;20038;-77
2022/05/13 01:53:18;;;;;;;10.30;6.20;;;;;;;12.37;68.18;99670.00;4991177;28;20038;-77
2022/05/13 01:55:43;;;;;;;12.95;6.50;;;;;;;12.32;67.88;99664.59;4992883;28;20022;-77
2022/05/13 01:58:17;;;;;;;21.75;6.68;;;;;;;12.48;67.45;99656.38;4992220;28;20022;-76
2022/05/13 02:00:46;;;;;;;6.38;5.78;;;;;;;12.63;67.08;99652.09;5012532;28;20388;-76
2022/05/13 02:05:56;;;;;;;8.35;5.75;;;;;;;12.90;66.27;99678.75;5012344;28;20408;-77
2022/05/13 02:08:22;;;;;;;8.13;5.85;;;;;;;12.84;66.17;99662.47;5012092;28;20030;-76
2022/05/13 02:10:48;;;;;;;7.90;6.18;;;;;;;12.83;66.46;99683.31;4992953;28;20473;-77
2022/05/13 02:13:14;;;;;;;9.30;5.85;;;;;;;12.55;67.27;99672.63;4992783;28;20157;-77
2022/05/13 02:15:40;;;;;;;7.03;6.20;;;;;;;12.54;67.93;99685.03;4995054;28;20037;-77
2022/05/13 02:18:07;;;;;;;6.93;6.22;;;;;;;12.28;68.28;99660.81;5012279;28;20018;-77
2022/05/13 02:20:33;;;;;;;6.53;5.70;;;;;;;12.41;67.87;99656.91;5012227;28;20029;-77
2022/05/13 02:22:58;;;;;;;8.65;6.63;;;;;;;12.58;67.38;99666.38;5011787;28;20088;-77
2022/05/13 02:25:24;;;;;;;11.02;7.30;;;;;;;12.50;67.36;99660.47;5010010;28;20025;-77
2022/05/13 02:27:50;;;;;;;26.08;8.05;;;;;;;12.48;68.11;99684.41;5012196;28;20469;-77
2022/05/13 02:30:15;;;;;;;14.57;8.50;;;;;;;12.38;68.24;99652.00;4994621;28;20077;-77
2022/05/13 02:32:41;;;;;;;9.13;7.60;;;;;;;12.33;68.12;99655.81;4974933;28;20022;-77
2022/05/13 02:35:07;;;;;;;13.27;7.63;;;;;;;12.49;68.09;99660.84;4991287;28;20030;-77
2022/05/13 02:37:32;;;;;;;10.70;7.05;;;;;;;12.59;67.74;99662.38;4974925;28;20028;-78
2022/05/13 02:39:58;;;;;;;8.40;6.70;;;;;;;12.50;67.79;99663.28;4992012;28;20050;-76
2022/05/13 02:42:24;;;;;;;7.63;6.82;;;;;;;12.50;68.10;99687.72;4977423;28;20033;-77
2022/05/13 02:44:50;;;;;;;8.95;5.93;;;;;;;12.29;68.41;99684.91;4993617;28;20029;-76
2022/05/13 02:47:16;;;;;;;10.52;6.70;;;;;;;11.93;69.55;99675.88;4994189;28;20087;-77
2022/05/13 02:49:42;;;;;;;10.80;7.57;;;;;;;11.85;69.85;99662.72;4990014;28;20026;-78
2022/05/13 02:52:10;;;;;;;13.82;7.57;;;;;;;11.64;70.24;99674.72;4992273;28;20023;-77
2022/05/13 02:54:36;;;;;;;12.05;7.40;;;;;;;11.71;70.45;99677.00;4991962;28;20057;-77
2022/05/13 02:57:02;;;;;;;10.32;6.90;;;;;;;11.56;70.27;99661.59;4992138;28;20053;-78
2022/05/13 02:59:27;;;;;;;9.90;6.63;;;;;;;11.42;71.63;99670.22;5003225;28;20076;-78
2022/05/13 03:01:54;;;;;;;8.05;6.95;;;;;;;11.65;71.67;99688.38;5011933;28;20021;-77
2022/05/13 03:04:21;;;;;;;10.38;6.93;;;;;;;11.89;69.99;99669.31;5011647;28;20037;-77
2022/05/13 03:06:47;;;;;;;12.75;6.00;;;;;;;12.12;69.03;99678.25;5008298;28;20022;-77
2022/05/13 03:09:12;;;;;;;7.88;6.60;;;;;;;12.01;68.81;99675.03;5006111;28;20077;-78
2022/05/13 03:11:38;;;;;;;10.48;7.18;;;;;;;11.78;69.61;99678.13;4991956;28;20045;-77
2022/05/13 03:14:03;;;;;;;7.00;6.28;;;;;;;11.60;71.14;99696.16;4975028;28;20117;-77
2022/05/13 03:16:30;;;;;;;22.63;7.18;;;;;;;11.53;71.24;99688.28;4992100;28;20041;-78
2022/05/13 03:18:58;;;;;;;17.50;6.80;;;;;;;11.66;71.10;99706.84;4991856;28;20030;-75
2022/05/13 03:21:25;;;;;;;11.40;7.38;;;;;;;11.41;71.64;99685.38;5007814;28;20876;-77
2022/05/13 03:23:52;;;;;;;10.55;6.40;;;;;;;11.31;71.78;99689.38;4988405;28;20433;-77
2022/05/13 03:26:20;;;;;;;10.25;7.70;;;;;;;11.37;71.60;99688.84;4990439;28;20038;-77
2022/05/13 03:28:46;;;;;;;20.20;8.23;;;;;;;11.52;71.47;99704.28;4998484;28;20018;-78
2022/05/13 03:31:12;;;;;;;9.90;8.35;;;;;;;11.34;72.14;99675.53;5011673;28;20025;-77
2022/05/13 03:33:38;;;;;;;10.32;8.65;;;;;;;11.56;70.87;99689.59;5011451;28;20025;-77
2022/05/13 03:36:05;;;;;;;9.13;7.10;;;;;;;11.56;71.18;99690.41;4992965;28;20044;-78
2022/05/13 03:38:31;;;;;;;10.70;8.05;;;;;;;11.86;70.59;99707.25;4987702;28;20069;-78
2022/05/13 03:40:57;;;;;;;13.43;7.00;;;;;;;11.77;70.35;99700.88;4991860;28;20082;-78
2022/05/13 03:43:22;;;;;;;12.30;8.23;;;;;;;11.68;70.35;99700.91;4995249;28;20390;-78
2022/05/13 03:45:48;;;;;;;18.15;12.70;;;;;;;11.55;71.54;99716.78;5003117;28;20029;-78
2022/05/13 03:48:14;;;;;;;24.15;14.70;;;;;;;11.70;71.27;99714.56;5011445;28;20038;-76
2022/05/13 03:50:42;;;;;;;18.33;10.95;;;;;;;11.43;72.61;99702.66;5007996;28;20503;-79
2022/05/13 03:53:09;;;;;;;19.05;12.18;;;;;;;11.91;71.41;99737.88;4996822;28;20021;-75
2022/05/13 03:55:35;;;;;;;21.33;12.93;;;;;;;12.26;70.19;99738.88;4997170;28;20401;-73
2022/05/13 03:58:01;;;;;;;13.38;8.43;;;;;;;12.10;70.69;99736.66;5004536;28;20027;-82
2022/05/13 04:00:27;;;;;;;10.45;6.97;;;;;;;12.25;70.27;99732.47;4981749;28;20026;-80
2022/05/13 04:02:53;;;;;;;11.77;7.75;;;;;;;12.31;70.47;99735.88;5004962;28;20503;-78
2022/05/13 04:10:48;;;;;;;20.02;7.28;;;;;;;12.87;68.92;99758.06;5005473;28;20049;-77
2022/05/13 04:16:06;;;;;;;17.05;6.90;;;;;;;12.87;69.49;99751.59;4998537;28;20113;-75
2022/05/13 04:18:35;;;;;;;13.13;7.28;;;;;;;12.89;69.07;99758.53;4993108;28;20473;-74
2022/05/13 04:21:04;;;;;;;11.63;6.43;;;;;;;13.03;68.75;99743.38;4995769;28;20027;-79
2022/05/13 04:23:35;;;;;;;13.75;6.95;;;;;;;13.18;68.64;99751.16;4994833;28;20037;-75
2022/05/13 04:26:01;;;;;;;7.72;6.78;;;;;;;13.23;67.90;99749.31;5001503;28;20073;-72
2022/05/13 04:28:27;;;;;;;11.07;6.05;;;;;;;13.52;67.31;99747.53;5000704;28;20038;-73
2022/05/13 04:30:53;;;;;;;11.93;5.97;;;;;;;13.68;66.99;99754.09;4997322;28;20030;-73
2022/05/13 04:33:18;;;;;;;7.50;6.50;;;;;;;13.74;67.09;99749.06;4994409;28;20034;-73
2022/05/13 04:35:44;;;;;;;20.17;8.55;;;;;;;13.81;67.21;99754.09;4994579;28;20481;-74
2022/05/13 04:38:09;;;;;;;19.67;7.40;;;;;;;13.70;67.75;99759.38;5012113;28;20033;-72
2022/05/13 04:40:35;;;;;;;20.00;7.22;;;;;;;13.84;67.72;99753.44;4996316;28;20050;-72
2022/05/13 04:43:01;;;;;;;8.63;7.30;;;;;;;14.07;66.37;99759.41;5010916;28;20033;-72
2022/05/13 04:45:29;;;;;;;13.40;6.13;;;;;;;14.24;65.74;99754.69;5002057;28;20102;-74
2022/05/13 04:50:50;;;;;;;13.90;6.60;;;;;;;14.58;65.61;99761.81;4995032;28;20044;-74
2022/05/13 04:53:34;;;;;;;12.90;6.38;;;;;;;14.78;65.05;99759.22;5009457;28;20041;-74
2022/05/13 04:56:01;;;;;;;32.05;7.30;;;;;;;14.92;64.27;99761.63;4992226;28;20477;-72
2022/05/13 04:58:27;;;;;;;17.13;7.53;;;;;;;15.10;63.54;99764.16;5013389;28;20036;-76
2022/05/13 05:00:55;;;;;;;13.65;6.78;;;;;;;15.30;61.44;99771.53;4987863;28;20022;-77
2022/05/13 05:03:23;;;;;;;14.05;7.50;;;;;;;15.50;60.85;99768.03;4977665;28;20033;-76
2022/05/13 05:05:49;;;;;;;9.30;7.20;;;;;;;15.48;60.80;99762.78;4994213;28;20168;-79
2022/05/13 05:08:16;;;;;;;15.45;6.65;;;;;;;15.78;60.39;99767.16;4975568;28;20125;-76
2022/05/13 05:10:44;;;;;;;21.38;6.90;;;;;;;15.90;59.05;99763.47;5008085;28;20070;-75
2022/05/13 05:13:09;;;;;;;11.55;7.93;;;;;;;16.00;60.14;99763.75;4984980;28;20034;-74
2022/05/13 05:15:39;;;;;;;10.10;6.40;;;;;;;16.18;58.71;99768.19;4997792;28;20423;-76
2022/05/13 05:18:05;;;;;;;16.10;6.90;;;;;;;16.38;57.96;99777.53;5000510;28;20030;-78
2022/05/13 05:20:30;;;;;;;16.42;6.95;;;;;;;16.51;58.11;99775.41;4993039;28;20032;-82
2022/05/13 05:22:56;;;;;;;6.35;5.75;;;;;;;16.57;57.27;99768.28;4991387;28;20034;-76
2022/05/13 05:25:22;;;;;;;11.55;5.50;;;;;;;16.32;57.39;99773.34;4993552;28;20045;-81
2022/05/13 05:27:48;;;;;;;14.23;5.28;;;;;;;16.62;57.74;99772.84;4984273;28;20092;-81
2022/05/13 05:30:15;;;;;;;7.20;6.18;;;;;;;16.62;57.24;99775.66;4986495;28;20022;-78
2022/05/13 05:32:42;;;;;;;10.43;5.40;;;;;;;16.75;57.06;99774.34;4992538;28;20034;-78
2022/05/13 05:35:12;;;;;;;18.80;6.80;;;;;;;17.09;56.57;99782.31;4983894;28;20049;-80
2022/05/13 05:37:37;;;;;;;6.95;5.53;;;;;;;17.35;54.05;99778.00;4995814;28;20018;-79
2022/05/13 05:40:04;;;;;;;12.02;5.93;;;;;;;17.43;53.06;99779.78;5008663;28;20046;-77
2022/05/13 05:42:31;;;;;;;12.48;6.55;;;;;;;17.51;51.97;99769.41;4993123;28;20029;-80
2022/05/13 05:44:56;;;;;;;12.05;7.03;;;;;;;17.68;52.10;99768.13;4995113;28;20432;-80
2022/05/13 05:47:23;;;;;;;9.10;6.13;;;;;;;17.70;51.74;99770.56;5007369;28;20025;-78
2022/05/13 05:49:49;;;;;;;16.05;7.18;;;;;;;17.62;51.66;99766.81;4983651;28;20026;-78
2022/05/13 05:52:15;;;;;;;10.02;5.57;;;;;;;17.74;53.18;99772.28;4992731;28;20056;-77
2022/05/13 05:57:25;;;;;;;22.15;7.72;;;;;;;17.61;52.62;99767.97;4997963;28;20041;-78
2022/05/13 05:59:50;;;;;;;11.13;6.82;;;;;;;17.62;52.01;99769.63;4975490;28;20026;-82
2022/05/13 06:02:17;;;;;;;20.08;8.00;;;;;;;17.59;52.37;99768.38;4993166;28;20107;-76
2022/05/13 06:04:43;;;;;;;15.98;7.47;;;;;;;17.58;53.38;99763.06;4985383;28;20026;-76
2022/05/13 06:07:12;;;;;;;10.18;6.20;;;;;;;17.80;52.26;99759.44;5005216;28;20032;-78
2022/05/13 06:09:39;;;;;;;13.18;6.55;;;;;;;18.10;51.71;99758.78;5001013;28;20485;-72
2022/05/13 06:12:09;;;;;;;11.10;6.32;;;;;;;18.03;51.79;99755.81;4992795;28;20554;-76
2022/05/13 06:14:35;;;;;;;6.80;6.10;;;;;;;18.04;51.69;99768.75;4996621;28;20038;-75
2022/05/13 06:17:01;;;;;;;8.95;5.70;;;;;;;18.30;52.00;99757.84;5005119;28;20060;-74
2022/05/13 06:19:27;;;;;;;9.80;5.85;;;;;;;18.57;51.44;99767.13;4994021;28;20034;-75
2022/05/13 06:21:52;;;;;;;19.98;6.85;;;;;;;18.80;50.71;99758.56;4993225;28;20038;-74
2022/05/13 06:24:18;;;;;;;8.75;6.00;;;;;;;19.02;50.96;99758.03;4992460;28;20026;-73
2022/05/13 06:26:48;;;;;;;6.32;5.38;;;;;;;19.18;50.11;99755.00;4999571;28;20070;-74
2022/05/13 06:29:14;;;;;;;11.13;6.03;;;;;;;19.19;49.51;99751.78;4996388;28;20037;-71
2022/05/13 06:31:40;;;;;;;13.52;6.38;;;;;;;19.48;49.67;99749.25;5011718;28;20080;-71
2022/05/13 06:34:06;;;;;;;7.38;5.57;;;;;;;19.39;49.55;99756.47;4992783;28;20033;-78
2022/05/13 06:36:31;;;;;;;8.85;6.28;;;;;;;19.36;48.47;99741.81;4994895;28;20079;-75
2022/05/13 06:38:58;;;;;;;12.70;6.65;;;;;;;19.11;49.16;99754.91;4994800;28;20060;-75
2022/05/13 06:41:24;;;;;;;15.07;6.68;;;;;;;19.10;49.83;99754.09;5004414;28;20388;-75
2022/05/13 06:43:50;;;;;;;16.60;7.07;;;;;;;19.63;49.80;99757.91;4975954;28;20034;-76
2022/05/13 06:46:16;;;;;;;14.93;6.68;;;;;;;19.71;47.55;99736.91;5010612;28;20029;-74
2022/05/13 06:48:41;;;;;;;10.23;5.93;;;;;;;19.88;47.88;99745.97;5001997;28;20088;-74
2022/05/13 06:51:07;;;;;;;10.65;5.32;;;;;;;20.09;47.67;99734.03;4983608;28;20126;-74
2022/05/13 06:53:33;;;;;;;11.48;6.68;;;;;;;20.28;47.59;99729.28;4994539;28;20424;-74
2022/05/13 06:55:58;;;;;;;12.43;6.28;;;;;;;20.42;47.45;99725.72;5005661;28;20038;-73
2022/05/13 06:58:24;;;;;;;9.65;6.07;;;;;;;20.43;47.35;99733.03;4992045;28;20113;-73
2022/05/13 07:00:49;;;;;;;6.25;5.63;;;;;;;20.39;47.18;99730.16;5003454;28;20041;-74
2022/05/13 07:03:18;;;;;;;10.07;5.68;;;;;;;20.54;47.19;99727.41;4993813;28;20037;-75
2022/05/13 07:05:44;;;;;;;12.75;5.88;;;;;;;21.04;46.96;99727.66;4979970;28;20396;-75
2022/05/13 07:08:11;;;;;;;7.15;5.60;;;;;;;20.52;46.51;99716.44;4996441;28;20110;-75
2022/05/13 07:10:39;;;;;;;7.20;5.18;;;;;;;20.96;47.65;99723.19;4996113;28;20038;-75
2022/05/13 07:13:06;;;;;;;13.35;5.68;;;;;;;21.03;46.54;99706.13;4991832;28;20031;-77
2022/05/13 07:15:32;;;;;;;13.57;5.85;;;;;;;20.94;45.55;99719.94;5001417;28;20037;-77
2022/05/13 07:17:58;;;;;;;18.80;5.57;;;;;;;20.85;45.81;99713.78;5007306;28;20109;-77
2022/05/13 07:20:25;;;;;;;14.13;5.20;;;;;;;21.19;45.75;99704.97;4983033;28;20053;-78
2022/05/13 07:22:52;;;;;;;9.50;5.07;;;;;;;21.44;44.33;99712.75;5004953;28;20454;-76
2022/05/13 07:25:17;;;;;;;11.75;5.20;;;;;;;21.77;45.24;99684.34;5011143;28;20103;-80
2022/05/13 07:27:43;;;;;;;5.40;4.80;;;;;;;21.63;43.38;99691.63;4997626;28;20029;-83
2022/05/13 07:30:10;;;;;;;16.40;5.72;;;;;;;21.59;43.50;99719.25;4981671;28;20030;-76
2022/05/13 07:32:36;;;;;;;15.23;6.28;;;;;;;21.84;44.31;99709.94;4995067;28;20474;-77
2022/05/13 07:35:02;;;;;;;13.32;5.70;;;;;;;22.22;43.63;99706.66;4995926;28;20041;-77
2022/05/13 07:37:27;;;;;;;19.42;5.05;;;;;;;22.54;42.26;99703.75;5007795;28;20036;-80
2022/05/13 07:42:37;;;;;;;9.15;5.57;;;;;;;22.71;41.73;99690.69;5011247;28;20040;-76
2022/05/13 07:45:03;;;;;;;7.05;5.72;;;;;;;22.98;40.41;99692.19;4986285;28;20120;-75
2022/05/13 07:47:28;;;;;;;11.40;5.20;;;;;;;23.12;42.42;99672.16;4999619;28;20503;-75
2022/05/13 07:49:54;;;;;;;8.80;4.68;;;;;;;23.37;41.22;99685.47;4978641;28;20077;-79
2022/05/13 07:52:20;;;;;;;13.93;5.10;;;;;;;23.33;41.42;99690.41;4998231;28;20105;-73
2022/05/13 07:54:45;;;;;;;9.02;4.78;;;;;;;23.48;40.11;99682.56;4989346;28;20568;-73
2022/05/13 07:57:11;;;;;;;11.25;5.50;;;;;;;23.37;39.43;99685.47;5006659;28;20623;-74
2022/05/13 08:00:24;;;;;;;8.63;4.97;;;;;;;23.84;41.79;99684.31;5015927;28;20042;-73
2022/05/13 08:02:22;;;;;;;8.20;5.00;;;;;;;24.15;40.13;99687.31;4994091;28;20117;-74
2022/05/13 08:04:48;;;;;;;5.43;4.57;;;;;;;24.37;38.66;99689.94;4976871;28;20121;-73
2022/05/13 08:07:15;;;;;;;8.27;4.50;;;;;;;24.33;38.45;99678.56;4994031;28;20030;-73
2022/05/13 08:09:40;;;;;;;14.30;5.75;;;;;;;24.49;36.90;99675.09;4979802;28;20527;-73
2022/05/13 08:12:06;;;;;;;5.32;4.30;;;;;;;24.63;35.45;99667.63;4996776;28;20066;-73
2022/05/13 08:14:32;;;;;;;5.25;4.25;;;;;;;24.32;33.49;99668.38;4998424;28;20026;-73
2022/05/13 08:16:57;;;;;;;12.00;5.05;;;;;;;24.48;36.09;99669.81;4994290;28;20014;-73
2022/05/13 08:19:23;;;;;;;11.13;4.43;;;;;;;24.70;36.06;99663.84;4986779;28;20508;-73
2022/05/13 08:21:48;;;;;;;9.88;4.25;;;;;;;24.70;35.72;99663.84;4993620;28;20053;-73
2022/05/13 08:24:14;;;;;;;13.90;5.50;;;;;;;25.00;36.10;99671.66;4979289;28;20791;-75
2022/05/13 08:26:40;;;;;;;7.78;4.82;;;;;;;24.88;35.71;99664.44;4993962;28;20033;-75
2022/05/13 08:29:05;;;;;;;8.07;5.28;;;;;;;25.02;35.22;99662.63;4999091;28;20521;-76
2022/05/13 08:31:31;;;;;;;6.07;4.25;;;;;;;25.05;35.28;99667.50;4998418;28;20617;-75
2022/05/13 08:33:56;;;;;;;13.95;4.90;;;;;;;25.25;36.10;99667.63;5002082;28;20060;-76
2022/05/13 08:36:22;;;;;;;9.23;4.95;;;;;;;25.09;36.06;99654.75;4995731;28;20114;-78
2022/05/13 08:38:50;;;;;;;6.47;4.70;;;;;;;25.47;35.72;99665.22;5004976;28;20054;-74
2022/05/13 08:41:24;;;;;;;8.77;5.28;;;;;;;25.45;35.43;99661.16;4994305;28;20077;-77
2022/05/13 08:43:53;;;;;;;8.05;4.60;;;;;;;25.55;35.18;99660.22;4999294;28;20057;-73
2022/05/13 08:46:25;;;;;;;12.10;5.10;;;;;;;25.45;33.65;99653.41;5012839;28;20097;-75
2022/05/13 08:49:28;;;;;;;12.00;5.05;;;;;;;25.33;35.17;99649.06;4999619;28;20046;-75
2022/05/13 08:55:09;;;;;;;14.23;5.15;;;;;;;25.72;34.77;99646.06;4959241;28;20555;-75
2022/05/13 08:57:41;;;;;;;9.20;4.72;;;;;;;25.77;33.90;99649.25;4995462;28;20022;-75
2022/05/13 09:00:23;;;;;;;6.90;4.60;;;;;;;25.97;34.17;99650.53;4997179;28;20038;-74
2022/05/13 09:03:11;;;;;;;6.80;5.07;;;;;;;25.87;34.09;99635.97;4999490;28;20041;-72
2022/05/13 09:05:50;;;;;;;7.65;5.20;;;;;;;25.86;32.63;99631.47;5001287;28;20038;-77
2022/05/13 09:08:15;;;;;;;5.50;4.30;;;;;;;25.99;32.45;99634.50;5013602;28;20105;-80
2022/05/13 09:11:20;;;;;;;7.18;4.80;;;;;;;26.11;32.53;99632.25;4997067;28;20038;-74
2022/05/13 09:14:04;;;;;;;8.57;4.90;;;;;;;26.35;32.00;99628.09;4992568;28;20034;-76
2022/05/13 09:16:41;;;;;;;10.45;5.25;;;;;;;26.02;32.02;99624.22;4993707;28;20019;-77
2022/05/13 09:19:14;;;;;;;113.45;14.02;;;;;;;25.58;33.41;99619.28;4991128;28;20030;-83
2022/05/13 09:21:43;;;;;;;9.93;5.32;;;;;;;25.60;34.38;99610.25;5009544;28;20075;-77
2022/05/13 09:24:09;;;;;;;8.52;4.82;;;;;;;26.26;33.19;99609.88;4976250;28;20125;-75
2022/05/13 09:26:38;;;;;;;8.60;4.63;;;;;;;26.63;32.33;99613.63;4995914;28;20042;-74
2022/05/13 09:29:17;;;;;;;5.57;4.82;;;;;;;26.74;31.88;99607.66;5000653;28;20027;-74
2022/05/13 09:32:02;;;;;;;9.10;4.63;;;;;;;27.06;32.13;99603.28;4994608;28;20081;-74
2022/05/13 09:34:30;;;;;;;7.97;5.10;;;;;;;27.08;31.79;99599.97;4994280;28;20037;-79
2022/05/13 09:37:10;;;;;;;6.05;5.25;;;;;;;27.13;32.13;99590.81;5013124;28;20057;-76
2022/05/13 09:39:43;;;;;;;7.32;5.72;;;;;;;27.10;32.00;99583.91;4998160;28;20061;-79
2022/05/13 09:42:25;;;;;;;15.90;5.65;;;;;;;27.14;33.14;99581.75;4989658;28;20702;-82
2022/05/13 09:44:52;;;;;;;19.10;7.13;;;;;;;27.11;32.63;99581.84;4974551;28;20022;-80
2022/05/13 09:47:30;;;;;;;10.98;7.05;;;;;;;27.32;31.95;99577.63;5005255;28;20080;-76
2022/05/13 09:49:59;;;;;;;23.23;8.65;;;;;;;27.26;31.85;99577.34;4973748;28;20034;-73
2022/05/13 09:52:35;;;;;;;16.25;7.10;;;;;;;27.26;32.60;99571.63;4988932;28;20038;-77
2022/05/13 09:55:22;;;;;;;14.57;6.57;;;;;;;27.47;32.73;99570.28;4981521;28;20604;-77
2022/05/13 09:57:50;;;;;;;9.73;6.35;;;;;;;27.57;32.43;99556.09;4997913;28;20508;-75
2022/05/13 10:00:29;;;;;;;8.77;5.40;;;;;;;27.64;32.03;99555.13;5056740;28;20631;-75
2022/05/13 10:03:17;;;;;;;13.75;5.85;;;;;;;27.43;31.24;99551.53;5038592;28;20124;-78
2022/05/13 10:05:43;;;;;;;13.02;6.00;;;;;;;27.45;32.38;99549.84;5027969;28;20033;-72
2022/05/13 10:08:13;;;;;;;14.15;6.13;;;;;;;27.77;32.93;99544.53;5035001;28;20492;-72
2022/05/13 10:13:59;;;;;;;12.70;5.40;;;;;;;28.18;31.81;99536.44;5045866;28;20032;-76
2022/05/13 10:16:34;;;;;;;19.35;6.05;;;;;;;28.12;30.82;99535.31;5041461;28;20025;-78
2022/05/13 10:19:10;;;;;;;13.50;5.38;;;;;;;28.09;30.98;99525.53;5037207;28;20504;-74
2022/05/13 10:21:44;;;;;;;6.63;5.15;;;;;;;28.13;31.70;99523.38;5036031;28;20033;-76
2022/05/13 10:24:40;;;;;;;12.48;5.63;;;;;;;27.98;31.21;99511.50;5037827;28;20053;-77
2022/05/13 10:27:12;;;;;;;10.70;4.72;;;;;;;27.85;31.85;99522.94;5044485;28;20021;-78
2022/05/13 10:29:45;;;;;;;7.07;5.90;;;;;;;27.98;29.90;99520.09;5046954;28;20025;-77
2022/05/13 10:32:27;;;;;;;11.57;4.88;;;;;;;27.95;29.73;99515.28;5045398;28;20020;-78
2022/05/13 10:34:55;;;;;;;6.53;5.00;;;;;;;28.01;29.68;99499.06;5040248;28;20036;-84
2022/05/13 10:37:38;;;;;;;11.02;5.85;;;;;;;27.85;29.56;99505.69;5035011;28;20083;-78
2022/05/13 10:40:10;;;;;;;6.90;6.15;;;;;;;28.21;30.10;99501.00;5035176;28;20156;-80
2022/05/13 10:42:42;;;;;;;8.20;5.07;;;;;;;28.50;28.95;99493.56;5044204;28;20037;-82
2022/05/13 10:45:19;;;;;;;9.65;4.70;;;;;;;28.67;29.12;99492.19;5045594;28;20028;-82
2022/05/13 10:47:54;;;;;;;9.07;6.18;;;;;;;28.37;28.86;99490.69;5040766;28;20940;-81
2022/05/13 10:50:36;;;;;;;13.00;5.05;;;;;;;28.35;28.75;99491.13;5043714;28;20029;-80
2022/05/13 10:53:32;;;;;;;9.98;5.45;;;;;;;28.65;29.66;99482.41;5038174;28;20452;-82
2022/05/13 10:56:30;;;;;;;10.38;5.60;;;;;;;28.75;30.16;99480.47;5044777;28;20040;-81
2022/05/13 10:59:35;;;;;;;14.30;5.40;;;;;;;28.80;28.66;99462.59;5052362;28;20539;-81
2022/05/13 11:02:25;;;;;;;8.00;5.15;;;;;;;28.89;28.34;99461.94;5031396;28;20040;-80
2022/05/13 11:05:11;;;;;;;6.70;4.82;;;;;;;28.99;29.00;99455.00;5043381;28;20031;-81
2022/05/13 11:07:55;;;;;;;15.07;5.50;;;;;;;29.00;29.13;99447.97;5051319;28;20104;-78
2022/05/13 11:10:21;;;;;;;10.07;5.57;;;;;;;29.13;29.55;99460.28;5039939;28;20236;-81
2022/05/13 11:13:14;;;;;;;9.63;5.20;;;;;;;29.23;27.55;99446.78;5037640;28;20120;-81
2022/05/13 11:15:45;;;;;;;9.07;5.40;;;;;;;29.44;28.86;99447.31;5043469;28;20033;-80
2022/05/13 11:18:18;;;;;;;9.88;4.43;;;;;;;29.32;27.43;99443.19;5028179;28;20021;-80
2022/05/13 11:21:00;;;;;;;9.60;4.50;;;;;;;29.53;26.66;99446.59;5040412;28;20025;-81
2022/05/13 11:27:05;;;;;;;4.40;4.00;;;;;;;29.91;26.72;99439.03;5048140;28;20032;-81
2022/05/13 11:29:59;;;;;;;6.20;4.57;;;;;;;30.04;27.27;99436.09;5037915;28;20026;-80
2022/05/13 11:32:38;;;;;;;10.68;5.00;;;;;;;30.03;25.97;99435.25;5029136;28;20080;-82
2022/05/13 11:35:03;;;;;;;4.53;4.13;;;;;;;29.97;25.64;99428.50;5016832;28;20112;-78
2022/05/13 11:37:33;;;;;;;6.50;4.05;;;;;;;30.01;25.93;99414.75;5021602;28;20116;-82
2022/05/13 11:40:22;;;;;;;7.40;4.60;;;;;;;30.07;26.25;99414.97;5028789;28;20036;-82
2022/05/13 11:43:25;;;;;;;10.13;4.03;;;;;;;30.29;25.19;99409.19;5013332;28;20467;-81
2022/05/13 11:46:06;;;;;;;6.85;3.72;;;;;;;30.14;25.07;99403.16;5024682;28;20026;-82
2022/05/13 11:48:35;;;;;;;9.13;4.35;;;;;;;30.03;24.83;99403.53;5031210;28;20021;-83
2022/05/13 11:51:31;;;;;;;9.65;3.65;;;;;;;29.88;26.64;99388.91;5031690;28;20036;-80
2022/05/13 11:53:59;;;;;;;9.45;3.85;;;;;;;29.87;25.28;99389.38;5026965;28;20025;-76
2022/05/13 11:56:25;;;;;;;6.05;3.78;;;;;;;30.05;24.93;99385.81;5030658;28;20025;-82
2022/05/13 11:59:03;;;;;;;11.40;4.95;;;;;;;30.30;24.53;99390.59;5031054;28;20059;-80
2022/05/13 12:01:37;;;;;;;6.28;3.88;;;;;;;30.36;24.68;99380.03;5031651;28;20033;-80
2022/05/13 12:04:16;;;;;;;7.53;3.90;;;;;;;30.14;24.26;99379.28;5030055;28;20025;-82
2022/05/13 12:06:48;;;;;;;4.82;3.78;;;;;;;30.21;25.35;99367.47;5041369;28;20030;-83
2022/05/13 12:09:16;;;;;;;6.88;3.83;;;;;;;30.21;24.19;99358.81;5021252;28;20036;-81